sensor_id;sensor_type;location;lat;lon;timestamp;pressure;altitude;pressure_sealevel;temperature;humidity
72038;BME280;59900;50.788;12.904;2024-02-04T00:00:07;97874.72;;;7.22;100.00
72038;BME280;59900;50.788;12.904;2024-02-04T00:02:32;97871.09;;;7.23;100.00
72038;BME280;59900;50.788;12.904;2024-02-04T00:04:57;97885.19;;;7.22;100.00
72038;BME280;59900;50.788;12.904;2024-02-04T00:07:22;97873.06;;;7.21;100.00
72038;BME280;59900;50.788;12.904;2024-02-04T00:09:48;97861.31;;;7.17;100.00
72038;BME280;59900;50.788;12.904;2024-02-04T00:12:13;97864.59;;;7.19;100.00
72038;BME280;59900;50.788;12.904;2024-02-04T00:14:38;97841.06;;;7.19;100.00
72038;BME280;59900;50.788;12.904;2024-02-04T00:17:03;97847.44;;;7.16;100.00
72038;BME280;59900;50.788;12.904;2024-02-04T00:19:29;97873.56;;;7.16;100.00
72038;BME280;59900;50.788;12.904;2024-02-04T00:21:54;97883.56;;;7.13;100.00
72038;BME280;59900;50.788;12.904;2024-02-04T00:24:19;97870.81;;;7.10;100.00
72038;BME280;59900;50.788;12.904;2024-02-04T00:26:45;97865.91;;;7.07;100.00
72038;BME280;59900;50.788;12.904;2024-02-04T00:29:10;97862.81;;;7.03;100.00
72038;BME280;59900;50.788;12.904;2024-02-04T00:31:35;97866.09;;;6.97;100.00
72038;BME280;59900;50.788;12.904;2024-02-04T00:34:00;97870.50;;;6.97;100.00
72038;BME280;59900;50.788;12.904;2024-02-04T00:36:26;97881.28;;;6.94;100.00
72038;BME280;59900;50.788;12.904;2024-02-04T00:38:51;97892.38;;;6.96;100.00
72038;BME280;59900;50.788;12.904;2024-02-04T00:41:16;97891.09;;;6.92;100.00
72038;BME280;59900;50.788;12.904;2024-02-04T00:43:42;97886.19;;;6.89;100.00
72038;BME280;59900;50.788;12.904;2024-02-04T00:46:07;97889.94;;;6.86;100.00
72038;BME280;59900;50.788;12.904;2024-02-04T00:48:35;97873.44;;;6.86;100.00
72038;BME280;59900;50.788;12.904;2024-02-04T00:51:00;97883.25;;;6.84;100.00
72038;BME280;59900;50.788;12.904;2024-02-04T00:53:25;97878.19;;;6.82;100.00
72038;BME280;59900;50.788;12.904;2024-02-04T00:55:55;97870.34;;;6.82;100.00
72038;BME280;59900;50.788;12.904;2024-02-04T00:58:20;97856.47;;;6.82;100.00
72038;BME280;59900;50.788;12.904;2024-02-04T01:00:46;97861.34;;;6.85;100.00
72038;BME280;59900;50.788;12.904;2024-02-04T01:03:11;97862.81;;;6.87;100.00
72038;BME280;59900;50.788;12.904;2024-02-04T01:05:36;97861.38;;;6.93;100.00
72038;BME280;59900;50.788;12.904;2024-02-04T01:08:02;97868.53;;;6.99;100.00
72038;BME280;59900;50.788;12.904;2024-02-04T01:10:27;97870.66;;;7.03;100.00
72038;BME280;59900;50.788;12.904;2024-02-04T01:12:52;97872.31;;;7.04;100.00
72038;BME280;59900;50.788;12.904;2024-02-04T01:15:17;97870.31;;;7.06;100.00
72038;BME280;59900;50.788;12.904;2024-02-04T01:17:42;97866.91;;;7.06;100.00
72038;BME280;59900;50.788;12.904;2024-02-04T01:20:08;97866.91;;;7.06;100.00
72038;BME280;59900;50.788;12.904;2024-02-04T01:22:34;97871.47;;;7.04;100.00
72038;BME280;59900;50.788;12.904;2024-02-04T01:25:02;97871.47;;;7.04;100.00
72038;BME280;59900;50.788;12.904;2024-02-04T01:27:28;97872.31;;;7.04;100.00
72038;BME280;59900;50.788;12.904;2024-02-04T01:29:53;97873.41;;;7.02;100.00
72038;BME280;59900;50.788;12.904;2024-02-04T01:32:18;97871.63;;;7.02;100.00
72038;BME280;59900;50.788;12.904;2024-02-04T01:34:43;97864.63;;;7.03;100.00
72038;BME280;59900;50.788;12.904;2024-02-04T01:37:11;97876.72;;;7.04;100.00
72038;BME280;59900;50.788;12.904;2024-02-04T01:39:36;97867.22;;;7.03;100.00
72038;BME280;59900;50.788;12.904;2024-02-04T01:42:02;97866.25;;;7.04;100.00
72038;BME280;59900;50.788;12.904;2024-02-04T01:44:27;97856.63;;;7.04;100.00
72038;BME280;59900;50.788;12.904;2024-02-04T01:46:53;97848.44;;;7.07;100.00
72038;BME280;59900;50.788;12.904;2024-02-04T01:49:19;97851.06;;;7.07;100.00
72038;BME280;59900;50.788;12.904;2024-02-04T01:51:45;97843.88;;;7.09;100.00
72038;BME280;59900;50.788;12.904;2024-02-04T01:54:10;97856.09;;;7.09;100.00
72038;BME280;59900;50.788;12.904;2024-02-04T01:56:36;97840.28;;;7.10;100.00
72038;BME280;59900;50.788;12.904;2024-02-04T01:59:01;97824.59;;;7.10;100.00
72038;BME280;59900;50.788;12.904;2024-02-04T02:01:27;97811.34;;;7.12;100.00
72038;BME280;59900;50.788;12.904;2024-02-04T02:03:52;97819.84;;;7.14;100.00
72038;BME280;59900;50.788;12.904;2024-02-04T02:06:18;97810.19;;;7.14;100.00
72038;BME280;59900;50.788;12.904;2024-02-04T02:08:44;97818.69;;;7.16;100.00
72038;BME280;59900;50.788;12.904;2024-02-04T02:11:21;97820.16;;;7.19;100.00
72038;BME280;59900;50.788;12.904;2024-02-04T02:13:54;97830.63;;;7.19;100.00
72038;BME280;59900;50.788;12.904;2024-02-04T02:16:22;97823.75;;;7.18;100.00
72038;BME280;59900;50.788;12.904;2024-02-04T02:18:57;97822.13;;;7.17;100.00
72038;BME280;59900;50.788;12.904;2024-02-04T02:21:34;97829.63;;;7.20;100.00
72038;BME280;59900;50.788;12.904;2024-02-04T02:26:46;97817.06;;;7.15;100.00
72038;BME280;59900;50.788;12.904;2024-02-04T02:29:12;97808.91;;;7.18;100.00
72038;BME280;59900;50.788;12.904;2024-02-04T02:31:38;97803.00;;;7.16;100.00
72038;BME280;59900;50.788;12.904;2024-02-04T02:34:04;97797.78;;;7.16;100.00
72038;BME280;59900;50.788;12.904;2024-02-04T02:36:33;97804.97;;;7.14;100.00
72038;BME280;59900;50.788;12.904;2024-02-04T02:39:08;97798.94;;;7.14;100.00
72038;BME280;59900;50.788;12.904;2024-02-04T02:41:36;97795.34;;;7.15;100.00
72038;BME280;59900;50.788;12.904;2024-02-04T02:44:04;97798.78;;;7.15;100.00
72038;BME280;59900;50.788;12.904;2024-02-04T02:46:30;97795.34;;;7.15;100.00
72038;BME280;59900;50.788;12.904;2024-02-04T02:48:56;97793.69;;;7.14;100.00
72038;BME280;59900;50.788;12.904;2024-02-04T02:51:22;97806.13;;;7.12;100.00
72038;BME280;59900;50.788;12.904;2024-02-04T02:53:47;97798.94;;;7.14;100.00
72038;BME280;59900;50.788;12.904;2024-02-04T02:56:12;97819.69;;;7.15;100.00
72038;BME280;59900;50.788;12.904;2024-02-04T02:58:37;97814.94;;;7.19;100.00
72038;BME280;59900;50.788;12.904;2024-02-04T03:01:03;97820.16;;;7.19;100.00
72038;BME280;59900;50.788;12.904;2024-02-04T03:03:28;97823.56;;;7.19;100.00
72038;BME280;59900;50.788;12.904;2024-02-04T03:05:53;97829.63;;;7.20;100.00
72038;BME280;59900;50.788;12.904;2024-02-04T03:08:19;97830.28;;;7.22;100.00
72038;BME280;59900;50.788;12.904;2024-02-04T03:10:44;97828.97;;;7.18;100.00
72038;BME280;59900;50.788;12.904;2024-02-04T03:13:09;97833.25;;;7.19;100.00
72038;BME280;59900;50.788;12.904;2024-02-04T03:15:34;97833.38;;;7.17;100.00
72038;BME280;59900;50.788;12.904;2024-02-04T03:18:00;97824.72;;;7.17;100.00
72038;BME280;59900;50.788;12.904;2024-02-04T03:20:25;97824.72;;;7.17;100.00
72038;BME280;59900;50.788;12.904;2024-02-04T03:22:50;97822.13;;;7.17;100.00
72038;BME280;59900;50.788;12.904;2024-02-04T03:25:15;97806.63;;;7.15;100.00
72038;BME280;59900;50.788;12.904;2024-02-04T03:27:41;97828.34;;;7.16;100.00
72038;BME280;59900;50.788;12.904;2024-02-04T03:30:07;97832.91;;;7.14;100.00
72038;BME280;59900;50.788;12.904;2024-02-04T03:32:32;97834.69;;;7.13;100.00
72038;BME280;59900;50.788;12.904;2024-02-04T03:35:02;97829.31;;;7.15;100.00
72038;BME280;59900;50.788;12.904;2024-02-04T03:37:27;97830.28;;;7.14;100.00
72038;BME280;59900;50.788;12.904;2024-02-04T03:39:53;97817.41;;;7.12;100.00
72038;BME280;59900;50.788;12.904;2024-02-04T03:42:18;97819.19;;;7.12;100.00
72038;BME280;59900;50.788;12.904;2024-02-04T03:44:46;97829.97;;;7.09;100.00
72038;BME280;59900;50.788;12.904;2024-02-04T03:47:11;97815.47;;;7.06;100.00
72038;BME280;59900;50.788;12.904;2024-02-04T03:49:37;97816.44;;;7.05;100.00
72038;BME280;59900;50.788;12.904;2024-02-04T03:52:02;97818.22;;;7.05;100.00
72038;BME280;59900;50.788;12.904;2024-02-04T03:54:27;97807.75;;;7.05;100.00
72038;BME280;59900;50.788;12.904;2024-02-04T03:56:53;97808.59;;;7.05;100.00
72038;BME280;59900;50.788;12.904;2024-02-04T03:59:18;97811.53;;;7.02;100.00
72038;BME280;59900;50.788;12.904;2024-02-04T04:01:50;97793.09;;;7.04;100.00
72038;BME280;59900;50.788;12.904;2024-02-04T04:04:18;97806.78;;;7.06;100.00
72038;BME280;59900;50.788;12.904;2024-02-04T04:06:45;97804.03;;;7.07;100.00
72038;BME280;59900;50.788;12.904;2024-02-04T04:09:11;97794.22;;;7.09;100.00
72038;BME280;59900;50.788;12.904;2024-02-04T04:11:36;97808.75;;;7.12;100.00
72038;BME280;59900;50.788;12.904;2024-02-04T04:14:01;97798.28;;;7.12;100.00
72038;BME280;59900;50.788;12.904;2024-02-04T04:16:26;97796.31;;;7.14;100.00
72038;BME280;59900;50.788;12.904;2024-02-04T04:18:52;97789.28;;;7.14;100.00
72038;BME280;59900;50.788;12.904;2024-02-04T04:21:17;97791.75;;;7.16;100.00
72038;BME280;59900;50.788;12.904;2024-02-04T04:23:43;97790.59;;;7.18;100.00
72038;BME280;59900;50.788;12.904;2024-02-04T04:26:08;97796.66;;;7.19;100.00
72038;BME280;59900;50.788;12.904;2024-02-04T04:28:34;97793.69;;;7.22;100.00
72038;BME280;59900;50.788;12.904;2024-02-04T04:30:59;97783.25;;;7.22;100.00
72038;BME280;59900;50.788;12.904;2024-02-04T04:33:24;97778.66;;;7.24;100.00
72038;BME280;59900;50.788;12.904;2024-02-04T04:35:49;97771.28;;;7.27;100.00
72038;BME280;59900;50.788;12.904;2024-02-04T04:38:15;97789.41;;;7.29;100.00
72038;BME280;59900;50.788;12.904;2024-02-04T04:40:40;97767.69;;;7.28;100.00
72038;BME280;59900;50.788;12.904;2024-02-04T04:43:06;97762.09;;;7.31;100.00
72038;BME280;59900;50.788;12.904;2024-02-04T04:45:31;97759.16;;;7.34;100.00
72038;BME280;59900;50.788;12.904;2024-02-04T04:47:56;97753.09;;;7.34;100.00
72038;BME280;59900;50.788;12.904;2024-02-04T04:50:21;97756.38;;;7.36;100.00
72038;BME280;59900;50.788;12.904;2024-02-04T04:52:47;97747.53;;;7.37;100.00
72038;BME280;59900;50.788;12.904;2024-02-04T04:55:12;97749.53;;;7.35;100.00
72038;BME280;59900;50.788;12.904;2024-02-04T04:57:37;97752.13;;;7.35;100.00
72038;BME280;59900;50.788;12.904;2024-02-04T05:00:03;97753.78;;;7.36;100.00
72038;BME280;59900;50.788;12.904;2024-02-04T05:02:32;97759.97;;;7.35;100.00
72038;BME280;59900;50.788;12.904;2024-02-04T05:04:57;97761.63;;;7.36;100.00
72038;BME280;59900;50.788;12.904;2024-02-04T05:07:22;97756.72;;;7.33;100.00
72038;BME280;59900;50.788;12.904;2024-02-04T05:09:47;97750.84;;;7.31;100.00
72038;BME280;59900;50.788;12.904;2024-02-04T05:12:13;97747.25;;;7.32;100.00
72038;BME280;59900;50.788;12.904;2024-02-04T05:14:38;97734.50;;;7.29;100.00
72038;BME280;59900;50.788;12.904;2024-02-04T05:17:04;97726.03;;;7.27;100.00
72038;BME280;59900;50.788;12.904;2024-02-04T05:19:30;97730.44;;;7.26;100.00
72038;BME280;59900;50.788;12.904;2024-02-04T05:21:56;97719.16;;;7.26;100.00
72038;BME280;59900;50.788;12.904;2024-02-04T05:24:21;97719.34;;;7.24;100.00
72038;BME280;59900;50.788;12.904;2024-02-04T05:26:46;97718.19;;;7.27;100.00
72038;BME280;59900;50.788;12.904;2024-02-04T05:29:11;97709.72;;;7.25;100.00
72038;BME280;59900;50.788;12.904;2024-02-04T05:31:41;97716.41;;;7.27;100.00
72038;BME280;59900;50.788;12.904;2024-02-04T05:34:07;97693.84;;;7.26;100.00
72038;BME280;59900;50.788;12.904;2024-02-04T05:36:32;97715.59;;;7.27;100.00
72038;BME280;59900;50.788;12.904;2024-02-04T05:39:08;97709.19;;;7.29;100.00
72038;BME280;59900;50.788;12.904;2024-02-04T05:41:34;97703.78;;;7.31;100.00
72038;BME280;59900;50.788;12.904;2024-02-04T05:43:59;97715.06;;;7.31;100.00
72038;BME280;59900;50.788;12.904;2024-02-04T05:46:24;97721.75;;;7.34;100.00
72038;BME280;59900;50.788;12.904;2024-02-04T05:48:50;97724.19;;;7.36;100.00
72038;BME280;59900;50.788;12.904;2024-02-04T05:51:15;97721.41;;;7.37;100.00
72038;BME280;59900;50.788;12.904;2024-02-04T05:53:40;97719.44;;;7.39;100.00
72038;BME280;59900;50.788;12.904;2024-02-04T05:56:05;97703.41;;;7.42;100.00
72038;BME280;59900;50.788;12.904;2024-02-04T05:58:31;97726.94;;;7.42;100.00
72038;BME280;59900;50.788;12.904;2024-02-04T06:00:56;97708.47;;;7.44;100.00
72038;BME280;59900;50.788;12.904;2024-02-04T06:03:21;97718.75;;;7.45;100.00
72038;BME280;59900;50.788;12.904;2024-02-04T06:05:46;97720.03;;;7.49;100.00
72038;BME280;59900;50.788;12.904;2024-02-04T06:08:12;97711.50;;;7.55;100.00
72038;BME280;59900;50.788;12.904;2024-02-04T06:10:37;97729.81;;;7.55;100.00
72038;BME280;59900;50.788;12.904;2024-02-04T06:13:02;97719.00;;;7.58;100.00
72038;BME280;59900;50.788;12.904;2024-02-04T06:15:28;97720.28;;;7.62;100.00
72038;BME280;59900;50.788;12.904;2024-02-04T06:17:53;97713.28;;;7.63;100.00
72038;BME280;59900;50.788;12.904;2024-02-04T06:20:18;97714.41;;;7.60;100.00
72038;BME280;59900;50.788;12.904;2024-02-04T06:22:44;97714.25;;;7.62;100.00
72038;BME280;59900;50.788;12.904;2024-02-04T06:25:09;97703.44;;;7.65;100.00
72038;BME280;59900;50.788;12.904;2024-02-04T06:27:34;97697.03;;;7.67;100.00
72038;BME280;59900;50.788;12.904;2024-02-04T06:29:59;97696.88;;;7.69;100.00
72038;BME280;59900;50.788;12.904;2024-02-04T06:32:25;97701.09;;;7.70;100.00
72038;BME280;59900;50.788;12.904;2024-02-04T06:34:51;97694.91;;;7.71;100.00
72038;BME280;59900;50.788;12.904;2024-02-04T06:37:16;97694.56;;;7.74;100.00
72038;BME280;59900;50.788;12.904;2024-02-04T06:39:41;97684.91;;;7.74;100.00
72038;BME280;59900;50.788;12.904;2024-02-04T06:42:07;97694.72;;;7.72;100.00
72038;BME280;59900;50.788;12.904;2024-02-04T06:44:32;97688.69;;;7.72;100.00
72038;BME280;59900;50.788;12.904;2024-02-04T06:46:57;97684.59;;;7.69;100.00
72038;BME280;59900;50.788;12.904;2024-02-04T06:49:22;97699.66;;;7.67;100.00
72038;BME280;59900;50.788;12.904;2024-02-04T06:51:48;97687.56;;;7.66;100.00
72038;BME280;59900;50.788;12.904;2024-02-04T06:54:14;97681.53;;;7.66;100.00
72038;BME280;59900;50.788;12.904;2024-02-04T06:56:40;97680.88;;;7.64;100.00
72038;BME280;59900;50.788;12.904;2024-02-04T06:59:05;97704.72;;;7.69;100.00
72038;BME280;59900;50.788;12.904;2024-02-04T07:01:30;97693.44;;;7.68;100.00
72038;BME280;59900;50.788;12.904;2024-02-04T07:03:55;97682.31;;;7.66;100.00
72038;BME280;59900;50.788;12.904;2024-02-04T07:06:21;97691.81;;;7.67;100.00
72038;BME280;59900;50.788;12.904;2024-02-04T07:08:46;97699.84;;;7.66;100.00
72038;BME280;59900;50.788;12.904;2024-02-04T07:11:11;97702.13;;;7.69;100.00
72038;BME280;59900;50.788;12.904;2024-02-04T07:13:36;97695.53;;;7.73;100.00
72038;BME280;59900;50.788;12.904;2024-02-04T07:16:02;97693.75;;;7.73;100.00
72038;BME280;59900;50.788;12.904;2024-02-04T07:18:27;97698.81;;;7.75;100.00
72038;BME280;59900;50.788;12.904;2024-02-04T07:20:53;97711.88;;;7.75;100.00
72038;BME280;59900;50.788;12.904;2024-02-04T07:23:18;97701.88;;;7.78;100.00
72038;BME280;59900;50.788;12.904;2024-02-04T07:25:43;97694.03;;;7.78;100.00
72038;BME280;59900;50.788;12.904;2024-02-04T07:28:08;97692.84;;;7.81;100.00
72038;BME280;59900;50.788;12.904;2024-02-04T07:30:34;97719.00;;;7.81;100.00
72038;BME280;59900;50.788;12.904;2024-02-04T07:32:59;97700.19;;;7.85;100.00
72038;BME280;59900;50.788;12.904;2024-02-04T07:35:24;97701.16;;;7.84;100.00
72038;BME280;59900;50.788;12.904;2024-02-04T07:37:49;97701.22;;;7.99;100.00
72038;BME280;59900;50.788;12.904;2024-02-04T07:40:15;97706.09;;;8.02;100.00
72038;BME280;59900;50.788;12.904;2024-02-04T07:42:40;97715.41;;;8.05;100.00
72038;BME280;59900;50.788;12.904;2024-02-04T07:45:06;97697.91;;;8.05;100.00
72038;BME280;59900;50.788;12.904;2024-02-04T07:47:34;97692.50;;;8.07;100.00
72038;BME280;59900;50.788;12.904;2024-02-04T07:49:59;97701.34;;;8.06;100.00
72038;BME280;59900;50.788;12.904;2024-02-04T07:52:24;97683.72;;;8.00;100.00
72038;BME280;59900;50.788;12.904;2024-02-04T07:54:50;97675.25;;;7.98;100.00
72038;BME280;59900;50.788;12.904;2024-02-04T07:57:15;97685.88;;;7.96;100.00
72038;BME280;59900;50.788;12.904;2024-02-04T07:59:40;97688.84;;;7.93;100.00
72038;BME280;59900;50.788;12.904;2024-02-04T08:02:05;97689.84;;;7.92;100.00
72038;BME280;59900;50.788;12.904;2024-02-04T08:04:32;97689.84;;;7.92;100.00
72038;BME280;59900;50.788;12.904;2024-02-04T08:06:57;97688.22;;;7.91;100.00
72038;BME280;59900;50.788;12.904;2024-02-04T08:09:22;97694.25;;;7.92;100.00
72038;BME280;59900;50.788;12.904;2024-02-04T08:11:47;97668.09;;;7.92;100.00
72038;BME280;59900;50.788;12.904;2024-02-04T08:14:13;97667.91;;;7.93;100.00
72038;BME280;59900;50.788;12.904;2024-02-04T08:16:42;97678.56;;;7.92;100.00
72038;BME280;59900;50.788;12.904;2024-02-04T08:19:08;97674.16;;;7.92;100.00
72038;BME280;59900;50.788;12.904;2024-02-04T08:21:33;97664.31;;;7.94;100.00
72038;BME280;59900;50.788;12.904;2024-02-04T08:23:58;97662.66;;;7.93;100.00
72038;BME280;59900;50.788;12.904;2024-02-04T08:26:24;97678.22;;;7.95;100.00
72038;BME280;59900;50.788;12.904;2024-02-04T08:28:50;97681.81;;;7.94;100.00
72038;BME280;59900;50.788;12.904;2024-02-04T08:31:16;97667.75;;;7.95;100.00
72038;BME280;59900;50.788;12.904;2024-02-04T08:33:41;97663.16;;;7.97;100.00
72038;BME280;59900;50.788;12.904;2024-02-04T08:36:06;97662.16;;;7.98;100.00
72038;BME280;59900;50.788;12.904;2024-02-04T08:38:35;97667.88;;;8.01;100.00
72038;BME280;59900;50.788;12.904;2024-02-04T08:41:00;97682.03;;;8.07;100.00
72038;BME280;59900;50.788;12.904;2024-02-04T08:43:28;97673.03;;;8.09;100.00
72038;BME280;59900;50.788;12.904;2024-02-04T08:45:53;97662.72;;;8.08;100.00
72038;BME280;59900;50.788;12.904;2024-02-04T08:48:18;97663.53;;;8.08;100.00
72038;BME280;59900;50.788;12.904;2024-02-04T08:50:43;97707.88;;;8.10;100.00
72038;BME280;59900;50.788;12.904;2024-02-04T08:53:09;97682.31;;;8.12;100.00
72038;BME280;59900;50.788;12.904;2024-02-04T08:55:34;97674.13;;;8.15;100.00
72038;BME280;59900;50.788;12.904;2024-02-04T08:57:59;97662.81;;;8.14;100.00
72038;BME280;59900;50.788;12.904;2024-02-04T09:00:24;97692.91;;;8.18;100.00
72038;BME280;59900;50.788;12.904;2024-02-04T09:02:50;97680.63;;;8.19;100.00
72038;BME280;59900;50.788;12.904;2024-02-04T09:05:15;97684.41;;;8.16;100.00
72038;BME280;59900;50.788;12.904;2024-02-04T09:07:41;97673.41;;;8.21;100.00
72038;BME280;59900;50.788;12.904;2024-02-04T09:10:07;97689.28;;;8.19;100.00
72038;BME280;59900;50.788;12.904;2024-02-04T09:12:32;97679.81;;;8.18;100.00
72038;BME280;59900;50.788;12.904;2024-02-04T09:14:57;97658.22;;;8.16;100.00
72038;BME280;59900;50.788;12.904;2024-02-04T09:17:22;97659.50;;;8.20;100.00
72038;BME280;59900;50.788;12.904;2024-02-04T09:19:48;97677.81;;;8.20;100.00
72038;BME280;59900;50.788;12.904;2024-02-04T09:22:14;97670.44;;;8.24;100.00
72038;BME280;59900;50.788;12.904;2024-02-04T09:24:39;97633.28;;;8.28;100.00
72038;BME280;59900;50.788;12.904;2024-02-04T09:27:04;97660.72;;;8.32;100.00
72038;BME280;59900;50.788;12.904;2024-02-04T09:29:29;97655.13;;;8.35;99.49
72038;BME280;59900;50.788;12.904;2024-02-04T09:31:55;97662.44;;;8.40;99.40
72038;BME280;59900;50.788;12.904;2024-02-04T09:34:20;97662.63;;;8.38;99.78
72038;BME280;59900;50.788;12.904;2024-02-04T09:36:45;97667.78;;;8.47;99.56
72038;BME280;59900;50.788;12.904;2024-02-04T09:39:11;97680.06;;;8.46;99.23
72038;BME280;59900;50.788;12.904;2024-02-04T09:41:36;97664.19;;;8.48;99.25
72038;BME280;59900;50.788;12.904;2024-02-04T09:44:02;97667.63;;;8.48;99.03
72038;BME280;59900;50.788;12.904;2024-02-04T09:46:29;97675.19;;;8.43;98.80
72038;BME280;59900;50.788;12.904;2024-02-04T09:48:55;97677.63;;;8.44;98.86
72038;BME280;59900;50.788;12.904;2024-02-04T09:51:20;97666.06;;;8.39;99.44
72038;BME280;59900;50.788;12.904;2024-02-04T09:53:51;97670.50;;;8.38;100.00
72038;BME280;59900;50.788;12.904;2024-02-04T09:56:17;97667.97;;;8.30;100.00
72038;BME280;59900;50.788;12.904;2024-02-04T09:58:43;97679.28;;;8.23;100.00
72038;BME280;59900;50.788;12.904;2024-02-04T10:01:08;97676.53;;;8.16;100.00
72038;BME280;59900;50.788;12.904;2024-02-04T10:03:36;97668.59;;;8.10;100.00
72038;BME280;59900;50.788;12.904;2024-02-04T10:06:01;97671.94;;;8.04;100.00
72038;BME280;59900;50.788;12.904;2024-02-04T10:08:27;97660.38;;;7.98;100.00
72038;BME280;59900;50.788;12.904;2024-02-04T10:10:52;97659.25;;;7.93;100.00
72038;BME280;59900;50.788;12.904;2024-02-04T10:13:19;97659.97;;;7.86;100.00
72038;BME280;59900;50.788;12.904;2024-02-04T10:15:46;97649.19;;;7.81;100.00
72038;BME280;59900;50.788;12.904;2024-02-04T10:18:11;97650.47;;;7.85;100.00
72038;BME280;59900;50.788;12.904;2024-02-04T10:20:37;97639.03;;;7.86;100.00
72038;BME280;59900;50.788;12.904;2024-02-04T10:23:02;97629.38;;;7.87;100.00
72038;BME280;59900;50.788;12.904;2024-02-04T10:25:28;97636.69;;;7.92;100.00
72038;BME280;59900;50.788;12.904;2024-02-04T10:27:53;97629.66;;;7.92;100.00
72038;BME280;59900;50.788;12.904;2024-02-04T10:30:19;97626.16;;;8.00;100.00
72038;BME280;59900;50.788;12.904;2024-02-04T10:32:46;97667.03;;;8.01;100.00
72038;BME280;59900;50.788;12.904;2024-02-04T10:35:12;97626.78;;;8.02;100.00
72038;BME280;59900;50.788;12.904;2024-02-04T10:37:37;97608.09;;;8.05;100.00
72038;BME280;59900;50.788;12.904;2024-02-04T10:40:03;97602.72;;;8.06;100.00
72038;BME280;59900;50.788;12.904;2024-02-04T10:42:29;97597.28;;;8.08;100.00
72038;BME280;59900;50.788;12.904;2024-02-04T10:44:54;97596.94;;;8.11;100.00
72038;BME280;59900;50.788;12.904;2024-02-04T10:47:25;97599.53;;;8.11;100.00
72038;BME280;59900;50.788;12.904;2024-02-04T10:49:52;97590.34;;;8.15;100.00
72038;BME280;59900;50.788;12.904;2024-02-04T10:52:22;97586.75;;;8.16;100.00
72038;BME280;59900;50.788;12.904;2024-02-04T10:54:49;97608.13;;;8.19;100.00
72038;BME280;59900;50.788;12.904;2024-02-04T10:57:20;97584.22;;;8.22;100.00
72038;BME280;59900;50.788;12.904;2024-02-04T10:59:47;97589.09;;;8.25;99.66
72038;BME280;59900;50.788;12.904;2024-02-04T11:02:14;97583.38;;;8.30;99.01
72038;BME280;59900;50.788;12.904;2024-02-04T11:04:41;97557.44;;;8.35;98.30
72038;BME280;59900;50.788;12.904;2024-02-04T11:07:08;97565.75;;;8.38;98.22
72038;BME280;59900;50.788;12.904;2024-02-04T11:09:36;97566.56;;;8.39;97.01
72038;BME280;59900;50.788;12.904;2024-02-04T11:12:04;97570.78;;;8.40;96.30
72038;BME280;59900;50.788;12.904;2024-02-04T11:14:32;97559.53;;;8.39;95.44
72038;BME280;59900;50.788;12.904;2024-02-04T11:25:45;97560.41;;;8.61;94.56
72038;BME280;59900;50.788;12.904;2024-02-04T11:28:11;97541.44;;;8.59;94.56
72038;BME280;59900;50.788;12.904;2024-02-04T11:30:37;97536.94;;;8.53;94.21
72038;BME280;59900;50.788;12.904;2024-02-04T11:33:03;97546.78;;;8.51;94.92
72038;BME280;59900;50.788;12.904;2024-02-04T11:35:29;97537.81;;;8.45;97.55
72038;BME280;59900;50.788;12.904;2024-02-04T11:37:54;97545.34;;;8.34;100.00
72038;BME280;59900;50.788;12.904;2024-02-04T11:40:21;97547.03;;;8.27;100.00
72038;BME280;59900;50.788;12.904;2024-02-04T11:42:48;97519.59;;;8.23;100.00
72038;BME280;59900;50.788;12.904;2024-02-04T11:45:14;97534.84;;;8.19;100.00
72038;BME280;59900;50.788;12.904;2024-02-04T11:47:39;97519.50;;;8.16;100.00
72038;BME280;59900;50.788;12.904;2024-02-04T11:50:05;97514.25;;;8.16;100.00
72038;BME280;59900;50.788;12.904;2024-02-04T11:52:31;97521.94;;;8.18;100.00
72038;BME280;59900;50.788;12.904;2024-02-04T11:54:57;97526.72;;;8.14;100.00
72038;BME280;59900;50.788;12.904;2024-02-04T11:57:22;97542.44;;;8.14;100.00
72038;BME280;59900;50.788;12.904;2024-02-04T11:59:48;97543.25;;;8.15;100.00
72038;BME280;59900;50.788;12.904;2024-02-04T12:02:17;97540.00;;;8.13;100.00
72038;BME280;59900;50.788;12.904;2024-02-04T12:04:46;97548.22;;;8.10;100.00
72038;BME280;59900;50.788;12.904;2024-02-04T12:07:13;97548.22;;;8.10;100.00
72038;BME280;59900;50.788;12.904;2024-02-04T12:09:38;97535.47;;;8.07;100.00
72038;BME280;59900;50.788;12.904;2024-02-04T12:12:04;97539.09;;;8.06;100.00
72038;BME280;59900;50.788;12.904;2024-02-04T12:14:30;97534.03;;;8.04;100.00
72038;BME280;59900;50.788;12.904;2024-02-04T12:16:56;97546.13;;;8.05;100.00
72038;BME280;59900;50.788;12.904;2024-02-04T12:19:22;97528.16;;;8.02;100.00
72038;BME280;59900;50.788;12.904;2024-02-04T12:21:47;97518.88;;;8.00;100.00
72038;BME280;59900;50.788;12.904;2024-02-04T12:24:14;97517.44;;;7.97;100.00
72038;BME280;59900;50.788;12.904;2024-02-04T12:26:39;97516.81;;;7.95;100.00
72038;BME280;59900;50.788;12.904;2024-02-04T12:29:06;97522.81;;;7.96;100.00
72038;BME280;59900;50.788;12.904;2024-02-04T12:31:31;97530.66;;;7.96;100.00
72038;BME280;59900;50.788;12.904;2024-02-04T12:33:59;97523.38;;;7.91;100.00
72038;BME280;59900;50.788;12.904;2024-02-04T12:36:30;97538.97;;;7.84;100.00
72038;BME280;59900;50.788;12.904;2024-02-04T12:39:00;97536.91;;;7.80;100.00
72038;BME280;59900;50.788;12.904;2024-02-04T12:41:26;97530.38;;;7.76;100.00
72038;BME280;59900;50.788;12.904;2024-02-04T12:43:53;97529.91;;;7.72;100.00
72038;BME280;59900;50.788;12.904;2024-02-04T12:46:20;97503.50;;;7.67;100.00
72038;BME280;59900;50.788;12.904;2024-02-04T12:48:50;97512.97;;;7.68;100.00
72038;BME280;59900;50.788;12.904;2024-02-04T12:51:30;97502.53;;;7.68;100.00
72038;BME280;59900;50.788;12.904;2024-02-04T12:54:05;97510.16;;;7.70;100.00